Terminal Aerodrome Forecast
Issued by NWS Bismarck, ND

Home | Current Version | Previous Version | Text Only | Print | Product List | Glossary On
Versions: 1 2 3 4 5 6 7 8 9 10 11 12 13 14 15 16 17 18 19 20
000
FTUS43 KBIS 211700
TAFISN
TAF
KISN 211738Z 2118/2218 36011KT P6SM SCT005 OVC012
      TEMPO 2118/2120 SCT015
     FM212000 36010KT P6SM SCT035 BKN080
     FM212200 01009KT P6SM VCTS BKN050CB OVC090
     FM220400 02008KT P6SM -SHRA VCTS BKN035 OVC050CB
     FM221200 04008KT 4SM BR VCSH BKN050=

USA.gov is the U.S. government's official web portal to all federal, state and local government web resources and services.